createdAt,value
2018-03-23T00:00:33.041Z,46.37
2018-03-23T00:03:00.519Z,48.17
2018-03-23T00:05:28.201Z,46.70
2018-03-23T00:07:55.670Z,54.70
2018-03-23T00:10:23.907Z,46.80
2018-03-23T00:12:51.367Z,50.23
2018-03-23T00:15:18.845Z,49.50
2018-03-23T00:17:46.318Z,50.23
2018-03-23T00:20:14.593Z,46.03
2018-03-23T00:22:42.835Z,49.30
2018-03-23T00:25:10.314Z,46.60
2018-03-23T00:27:37.778Z,51.63
2018-03-23T00:30:06.020Z,47.13
2018-03-23T00:32:33.557Z,49.90
2018-03-23T00:35:01.061Z,54.03
2018-03-23T00:37:28.541Z,58.67
2018-03-23T00:39:56.007Z,63.37
2018-03-23T00:42:24.207Z,57.77
2018-03-23T00:44:51.668Z,58.43
2018-03-23T00:47:19.187Z,71.23
2018-03-23T00:49:47.474Z,67.90
2018-03-23T00:52:14.944Z,64.13
2018-03-23T00:54:42.942Z,75.93
2018-03-23T00:57:10.610Z,73.23
2018-03-23T00:59:38.160Z,73.23
2018-03-23T01:02:05.652Z,73.53
2018-03-23T01:04:33.891Z,77.43
2018-03-23T01:07:01.362Z,67.37
2018-03-23T01:09:28.839Z,83.67
2018-03-23T01:11:56.320Z,72.33
2018-03-23T01:14:23.783Z,77.60
2018-03-23T01:16:51.241Z,69.07
2018-03-23T01:19:18.716Z,85.80
2018-03-23T01:21:46.229Z,72.30
2018-03-23T01:24:14.485Z,71.57
2018-03-23T01:26:42.012Z,67.23
2018-03-23T01:29:09.488Z,65.77
2018-03-23T01:31:36.956Z,72.20
2018-03-23T01:34:05.582Z,70.23
2018-03-23T01:36:33.160Z,67.03
2018-03-23T01:39:00.585Z,69.63
2018-03-23T01:41:28.832Z,66.87
2018-03-23T01:43:56.305Z,62.70
2018-03-23T01:46:24.553Z,61.00
2018-03-23T01:48:52.027Z,58.33
2018-03-23T01:51:19.503Z,65.10
2018-03-23T01:53:47.750Z,62.07
2018-03-23T01:56:15.214Z,62.50
2018-03-23T01:58:42.695Z,52.67
2018-03-23T02:01:10.935Z,59.23
2018-03-23T02:03:38.397Z,61.57
2018-03-23T02:06:05.868Z,55.30
2018-03-23T02:08:33.439Z,56.20
2018-03-23T02:11:01.690Z,74.90
2018-03-23T02:13:29.671Z,49.93
2018-03-23T02:15:57.167Z,49.57
2018-03-23T02:18:24.849Z,49.13
2018-03-23T02:20:52.438Z,51.33
2018-03-23T02:23:19.961Z,47.97
2018-03-23T02:25:47.435Z,50.10
2018-03-23T02:28:14.909Z,49.10
2018-03-23T02:30:42.490Z,57.77
2018-03-23T02:33:09.927Z,50.03
2018-03-23T02:35:37.402Z,47.53
2018-03-23T02:38:04.868Z,50.50
2018-03-23T02:40:33.100Z,49.57
2018-03-23T02:43:00.561Z,47.57
2018-03-23T02:45:28.033Z,50.90
2018-03-23T02:47:55.527Z,46.40
2018-03-23T02:50:23.753Z,44.50
2018-03-23T02:52:51.238Z,57.30
2018-03-23T02:55:18.769Z,53.50
2018-03-23T02:57:46.455Z,52.33
2018-03-23T03:00:13.923Z,50.67
2018-03-23T03:02:42.171Z,51.53
2018-03-23T03:05:09.637Z,54.50
2018-03-23T03:07:37.641Z,65.37
2018-03-23T03:10:05.231Z,57.70
2018-03-23T03:12:32.827Z,56.50
2018-03-23T03:15:00.495Z,68.10
2018-03-23T03:17:28.021Z,60.03
2018-03-23T03:22:29.492Z,58.03
2018-03-23T03:24:56.976Z,65.63
2018-03-23T03:27:25.197Z,64.33
2018-03-23T03:29:52.732Z,63.37
2018-03-23T03:32:20.281Z,62.67
2018-03-23T03:34:48.534Z,63.87
2018-03-23T03:37:16.004Z,62.57
2018-03-23T03:39:44.248Z,58.73
2018-03-23T03:42:12.758Z,60.87
2018-03-23T03:44:40.361Z,62.70
2018-03-23T03:47:07.825Z,72.33
2018-03-23T03:49:35.396Z,75.83
2018-03-23T03:52:02.862Z,68.57
2018-03-23T03:54:30.339Z,65.67
2018-03-23T03:56:57.949Z,62.10
2018-03-23T03:59:25.510Z,65.90
2018-03-23T04:01:53.645Z,61.80
2018-03-23T04:04:21.953Z,58.13
2018-03-23T04:06:49.436Z,69.00
2018-03-23T04:09:17.014Z,65.73
2018-03-23T04:11:44.585Z,69.20
2018-03-23T04:14:12.049Z,56.90
2018-03-23T04:16:40.304Z,52.37
2018-03-23T04:19:07.770Z,50.10
2018-03-23T04:21:35.379Z,56.07
2018-03-23T04:24:02.909Z,48.50
2018-03-23T04:26:31.284Z,47.70
2018-03-23T04:28:59.515Z,38.70
2018-03-23T04:31:26.990Z,39.00
2018-03-23T04:33:54.467Z,44.73
2018-03-23T04:36:22.701Z,38.43
2018-03-23T04:38:50.185Z,34.80
2018-03-23T04:41:17.840Z,41.40
2018-03-23T04:43:45.387Z,42.17
2018-03-23T04:46:12.956Z,47.13
2018-03-23T04:48:40.433Z,46.30
2018-03-23T04:51:07.969Z,43.20
2018-03-23T04:53:35.454Z,47.03
2018-03-23T04:56:02.905Z,41.13
2018-03-23T04:58:31.151Z,35.40
2018-03-23T05:00:58.621Z,39.87
2018-03-23T05:03:26.099Z,38.97
2018-03-23T05:05:53.642Z,32.40
2018-03-23T05:08:21.173Z,38.10
2018-03-23T05:10:48.649Z,39.43
2018-03-23T05:13:16.135Z,42.43
2018-03-23T05:15:43.607Z,36.83
2018-03-23T05:18:11.844Z,34.93
2018-03-23T05:20:39.333Z,40.77
2018-03-23T05:23:07.558Z,38.03
2018-03-23T05:25:35.027Z,30.80
2018-03-23T05:28:03.263Z,30.67
2018-03-23T05:30:30.734Z,29.17
2018-03-23T05:32:58.196Z,28.10
2018-03-23T05:35:25.717Z,36.13
2018-03-23T05:37:54.677Z,35.43
2018-03-23T05:40:22.144Z,29.27
2018-03-23T05:42:49.604Z,29.40
2018-03-23T05:45:17.873Z,29.90
2018-03-23T05:47:45.346Z,26.63
2018-03-23T05:50:13.585Z,28.57
2018-03-23T05:52:41.048Z,23.50
2018-03-23T05:55:09.390Z,31.27
2018-03-23T05:57:36.869Z,28.30
2018-03-23T06:00:04.335Z,32.40
2018-03-23T06:02:31.940Z,32.03
2018-03-23T06:05:00.166Z,30.43
2018-03-23T06:07:27.656Z,28.83
2018-03-23T06:09:55.912Z,30.90
2018-03-23T06:12:23.461Z,29.33
2018-03-23T06:14:51.100Z,42.73
2018-03-23T06:17:18.706Z,37.83
2018-03-23T06:19:46.362Z,30.80
2018-03-23T06:22:13.886Z,26.20
2018-03-23T06:24:41.352Z,29.33
2018-03-23T06:27:08.984Z,31.07
2018-03-23T06:29:36.493Z,23.63
2018-03-23T06:32:04.006Z,23.87
2018-03-23T06:34:31.471Z,33.60
2018-03-23T06:36:59.021Z,27.67
2018-03-23T06:39:26.505Z,30.70
2018-03-23T06:41:53.964Z,31.60
2018-03-23T06:44:21.447Z,29.77
2018-03-23T06:46:48.912Z,26.43
2018-03-23T06:49:17.222Z,29.53
2018-03-23T06:51:44.690Z,21.33
2018-03-23T06:54:12.183Z,26.53
2018-03-23T06:56:39.662Z,26.17
2018-03-23T06:59:07.909Z,34.63
2018-03-23T07:01:35.373Z,25.97
2018-03-23T07:04:02.915Z,22.00
2018-03-23T07:06:30.387Z,25.73
2018-03-23T07:08:57.864Z,25.67
2018-03-23T07:11:26.121Z,22.73
2018-03-23T07:13:53.877Z,30.30
2018-03-23T07:16:21.348Z,31.23
2018-03-23T07:18:48.830Z,23.83
2018-03-23T07:21:17.062Z,28.57
2018-03-23T07:23:44.528Z,24.23
2018-03-23T07:26:12.777Z,23.50
2018-03-23T07:28:40.254Z,25.20
2018-03-23T07:31:07.734Z,31.57
2018-03-23T07:33:35.957Z,21.50
2018-03-23T07:36:03.673Z,27.20
2018-03-23T07:38:31.248Z,25.70
2018-03-23T07:40:59.503Z,21.60
2018-03-23T07:43:26.982Z,24.33
2018-03-23T07:45:55.238Z,26.30
2018-03-23T07:48:23.571Z,21.30
2018-03-23T07:50:51.134Z,29.93
2018-03-23T07:53:19.397Z,25.67
2018-03-23T07:55:47.486Z,19.93
2018-03-23T07:58:14.960Z,24.37
2018-03-23T08:00:42.430Z,24.50
2018-03-23T08:03:09.939Z,27.60
2018-03-23T08:05:37.564Z,24.87
2018-03-23T08:08:05.829Z,23.13
2018-03-23T08:10:33.305Z,18.47
2018-03-23T08:13:00.864Z,22.03
2018-03-23T08:15:28.358Z,26.67
2018-03-23T08:17:55.851Z,30.30
2018-03-23T08:20:23.356Z,24.10
2018-03-23T08:22:50.973Z,24.43
2018-03-23T08:25:18.465Z,22.83
2018-03-23T08:27:45.971Z,23.60
2018-03-23T08:30:13.459Z,30.20
2018-03-23T08:32:41.789Z,25.20
2018-03-23T08:35:09.353Z,20.97
2018-03-23T08:37:37.016Z,23.30
2018-03-23T08:40:04.569Z,19.13
2018-03-23T08:42:32.103Z,19.03
2018-03-23T08:44:59.649Z,22.97
2018-03-23T08:47:27.122Z,18.77
2018-03-23T08:49:54.648Z,30.30
2018-03-23T08:52:22.173Z,18.60
2018-03-23T08:54:49.658Z,20.97
2018-03-23T08:57:17.934Z,17.37
2018-03-23T08:59:46.218Z,14.83
2018-03-23T09:02:14.514Z,17.50
2018-03-23T09:04:42.049Z,20.13
2018-03-23T09:07:09.561Z,14.77
2018-03-23T09:09:37.068Z,15.43
2018-03-23T09:12:05.375Z,18.03
2018-03-23T09:14:32.872Z,26.00
2018-03-23T09:17:00.368Z,17.23
2018-03-23T09:19:28.626Z,13.27
2018-03-23T09:21:56.120Z,18.37
2018-03-23T09:24:23.589Z,14.77
2018-03-23T09:26:51.107Z,21.43
2018-03-23T09:29:19.405Z,18.00
2018-03-23T09:31:46.907Z,18.00
2018-03-23T09:34:14.384Z,12.30
2018-03-23T09:36:43.372Z,11.40
2018-03-23T09:39:10.945Z,11.90
2018-03-23T09:41:38.558Z,17.00
2018-03-23T09:44:06.071Z,11.10
2018-03-23T09:46:33.517Z,10.43
2018-03-23T09:49:01.185Z,20.23
2018-03-23T09:51:29.570Z,15.00
2018-03-23T09:53:57.855Z,13.73
2018-03-23T09:56:25.372Z,11.47
2018-03-23T09:58:52.839Z,14.97
2018-03-23T10:01:20.329Z,13.43
2018-03-23T10:03:48.822Z,12.47
2018-03-23T10:06:16.440Z,12.70
2018-03-23T10:08:43.949Z,25.20
2018-03-23T10:11:11.611Z,16.33
2018-03-23T10:13:43.230Z,14.27
2018-03-23T10:16:11.468Z,15.90
2018-03-23T10:18:38.941Z,13.03
2018-03-23T10:21:06.405Z,11.80
2018-03-23T10:23:33.878Z,14.80
2018-03-23T10:26:02.128Z,13.47
2018-03-23T10:28:29.584Z,14.27
2018-03-23T10:30:57.263Z,12.97
2018-03-23T10:33:25.502Z,13.07
2018-03-23T10:35:53.217Z,13.70
2018-03-23T10:38:21.453Z,10.10
2018-03-23T10:40:48.925Z,11.70
2018-03-23T10:43:17.220Z,17.03
2018-03-23T10:45:45.609Z,14.73
2018-03-23T10:48:13.841Z,14.43
2018-03-23T10:50:41.442Z,13.33
2018-03-23T10:53:09.000Z,14.37
2018-03-23T10:55:37.233Z,15.03
2018-03-23T10:58:06.217Z,15.53
2018-03-23T11:00:39.306Z,10.57
2018-03-23T11:03:06.806Z,16.13
2018-03-23T11:05:35.041Z,38.43
2018-03-23T11:08:02.523Z,19.00
2018-03-23T11:10:30.010Z,14.83
2018-03-23T11:12:57.731Z,19.87
2018-03-23T11:15:25.201Z,16.70
2018-03-23T11:17:52.701Z,11.23
2018-03-23T11:20:20.919Z,12.87
2018-03-23T11:22:48.399Z,11.73
2018-03-23T11:25:16.637Z,15.30
2018-03-23T11:27:44.121Z,18.20
2018-03-23T11:30:12.200Z,14.83
2018-03-23T11:32:40.574Z,15.63
2018-03-23T11:35:08.054Z,23.33
2018-03-23T11:37:36.285Z,12.23
2018-03-23T11:40:03.763Z,17.60
2018-03-23T11:42:31.414Z,17.10
2018-03-23T11:44:58.925Z,22.17
2018-03-23T11:47:26.462Z,18.73
2018-03-23T11:49:54.771Z,16.97
2018-03-23T11:52:22.256Z,19.23
2018-03-23T11:54:49.725Z,13.70
2018-03-23T11:57:17.216Z,20.33
2018-03-23T11:59:44.685Z,17.13
2018-03-23T12:02:12.165Z,8.77
2018-03-23T12:07:13.446Z,13.63
2018-03-23T12:09:41.520Z,14.67
2018-03-23T12:12:09.071Z,13.00
2018-03-23T12:14:36.550Z,14.47
2018-03-23T12:17:04.213Z,10.30
2018-03-23T12:19:31.828Z,16.13
2018-03-23T12:21:59.365Z,11.10
2018-03-23T12:24:26.993Z,10.37
2018-03-23T12:26:54.566Z,11.10
2018-03-23T12:29:22.798Z,18.07
2018-03-23T12:31:50.365Z,11.33
2018-03-23T12:34:18.591Z,19.73
2018-03-23T12:36:46.832Z,16.13
2018-03-23T12:39:14.318Z,13.10
2018-03-23T12:41:42.563Z,15.10
2018-03-23T12:44:10.029Z,17.10
2018-03-23T12:46:38.261Z,12.17
2018-03-23T12:49:05.745Z,14.77
2018-03-23T12:51:33.210Z,14.43
2018-03-23T12:54:00.681Z,11.60
2018-03-23T12:56:28.922Z,17.87
2018-03-23T12:58:56.393Z,12.27
2018-03-23T13:01:23.989Z,10.53
2018-03-23T13:03:51.478Z,9.00
2018-03-23T13:06:19.074Z,9.93
2018-03-23T13:08:46.553Z,11.50
2018-03-23T13:11:14.794Z,8.80
2018-03-23T13:13:43.045Z,11.63
2018-03-23T13:16:10.533Z,9.67
2018-03-23T13:18:37.993Z,8.33
2018-03-23T13:21:05.481Z,8.50
2018-03-23T13:23:33.717Z,10.03
2018-03-23T13:26:01.185Z,10.50
2018-03-23T13:28:28.723Z,9.43
2018-03-23T13:30:56.272Z,12.67
2018-03-23T13:33:23.729Z,8.23
2018-03-23T13:35:51.282Z,11.90
2018-03-23T13:38:18.746Z,11.53
2018-03-23T13:40:46.237Z,12.47
2018-03-23T13:43:13.775Z,9.17
2018-03-23T13:45:41.417Z,8.50
2018-03-23T13:48:09.632Z,8.83
2018-03-23T13:50:37.115Z,9.03
2018-03-23T13:53:04.600Z,9.93
2018-03-23T13:55:32.712Z,6.40
2018-03-23T13:58:00.242Z,9.00
2018-03-23T14:00:33.285Z,7.73
2018-03-23T14:03:01.525Z,6.97
2018-03-23T14:05:29.007Z,8.20
2018-03-23T14:07:57.250Z,11.63
2018-03-23T14:10:24.702Z,8.13
2018-03-23T14:12:52.806Z,7.80
2018-03-23T14:15:20.269Z,6.37
2018-03-23T14:17:48.514Z,7.90
2018-03-23T14:20:16.052Z,8.23
2018-03-23T14:22:44.399Z,8.73
2018-03-23T14:25:11.854Z,8.57
2018-03-23T14:27:39.405Z,8.00
2018-03-23T14:30:07.674Z,6.10
2018-03-23T14:32:35.912Z,11.20
2018-03-23T14:35:03.373Z,8.60
2018-03-23T14:37:30.832Z,7.17
2018-03-23T14:39:58.298Z,6.43
2018-03-23T14:42:25.761Z,8.03
2018-03-23T14:44:53.272Z,8.47
2018-03-23T14:47:20.763Z,6.83
2018-03-23T14:49:48.251Z,7.77
2018-03-23T14:52:16.491Z,8.13
2018-03-23T14:54:43.979Z,8.77
2018-03-23T14:57:13.153Z,6.30
2018-03-23T14:59:40.772Z,7.43
2018-03-23T15:02:08.379Z,9.10
2018-03-23T15:04:35.889Z,8.70
2018-03-23T15:07:03.392Z,11.57
2018-03-23T15:09:30.852Z,15.63
2018-03-23T15:11:58.324Z,13.03
2018-03-23T15:14:30.541Z,14.77
2018-03-23T15:16:58.090Z,13.33
2018-03-23T15:19:25.653Z,15.23
2018-03-23T15:21:53.154Z,12.53
2018-03-23T15:24:20.625Z,18.67
2018-03-23T15:26:48.874Z,14.77
2018-03-23T15:29:16.813Z,15.63
2018-03-23T15:31:44.436Z,25.60
2018-03-23T15:34:12.004Z,14.93
2018-03-23T15:36:39.566Z,19.00
2018-03-23T15:39:07.272Z,16.10
2018-03-23T15:41:35.072Z,20.27
2018-03-23T15:44:03.399Z,16.00
2018-03-23T15:46:30.942Z,21.07
2018-03-23T15:48:58.503Z,15.93
2018-03-23T15:51:26.186Z,16.23
2018-03-23T15:53:53.725Z,16.07
2018-03-23T15:56:21.518Z,21.83
2018-03-23T15:58:49.867Z,19.47
2018-03-23T16:01:17.557Z,15.77
2018-03-23T16:03:45.120Z,14.63
2018-03-23T16:06:12.664Z,16.60
2018-03-23T16:08:40.562Z,17.23
2018-03-23T16:11:08.907Z,21.50
2018-03-23T16:13:36.417Z,18.33
2018-03-23T16:16:04.708Z,17.77
2018-03-23T16:18:32.271Z,18.53
2018-03-23T16:21:00.509Z,16.10
2018-03-23T16:23:28.081Z,17.90
2018-03-23T16:25:56.443Z,16.53
2018-03-23T16:28:24.770Z,15.67
2018-03-23T16:30:52.393Z,13.20
2018-03-23T16:33:19.960Z,20.33
2018-03-23T16:35:48.261Z,15.03
2018-03-23T16:38:15.983Z,17.00
2018-03-23T16:40:43.784Z,22.73
2018-03-23T16:43:11.355Z,16.70
2018-03-23T16:45:38.994Z,17.43
2018-03-23T16:48:07.525Z,18.33
2018-03-23T16:50:35.084Z,15.50
2018-03-23T16:53:03.755Z,15.70
2018-03-23T16:55:31.352Z,15.27
2018-03-23T16:58:00.174Z,18.50
2018-03-23T17:00:28.568Z,17.70
2018-03-23T17:02:56.057Z,15.47
2018-03-23T17:05:23.525Z,19.23
2018-03-23T17:07:51.185Z,20.83
2018-03-23T17:10:18.677Z,19.47
2018-03-23T17:12:46.917Z,16.37
2018-03-23T17:15:14.413Z,17.77
2018-03-23T17:17:42.658Z,16.13
2018-03-23T17:20:10.208Z,21.83
2018-03-23T17:22:37.762Z,15.17
2018-03-23T17:25:05.241Z,19.53
2018-03-23T17:27:32.898Z,21.10
2018-03-23T17:30:00.431Z,17.83
2018-03-23T17:32:28.087Z,20.23
2018-03-23T17:34:55.561Z,27.77
2018-03-23T17:37:23.026Z,16.93
2018-03-23T17:39:51.334Z,19.53
2018-03-23T17:42:19.570Z,15.50
2018-03-23T17:44:47.054Z,15.00
2018-03-23T17:47:14.523Z,13.73
2018-03-23T17:49:42.849Z,15.73
2018-03-23T17:52:10.309Z,16.17
2018-03-23T17:54:37.778Z,16.60
2018-03-23T17:57:05.250Z,14.27
2018-03-23T17:59:32.722Z,13.00
2018-03-23T18:02:01.053Z,13.40
2018-03-23T18:04:28.570Z,13.50
2018-03-23T18:06:56.811Z,14.57
2018-03-23T18:09:24.424Z,14.03
2018-03-23T18:11:51.902Z,11.30
2018-03-23T18:14:19.375Z,15.77
2018-03-23T18:16:46.853Z,13.83
2018-03-23T18:19:14.405Z,13.73
2018-03-23T18:21:44.115Z,11.97
2018-03-23T18:24:11.586Z,10.87
2018-03-23T18:26:39.850Z,13.13
2018-03-23T18:29:07.309Z,11.50
2018-03-23T18:31:35.285Z,10.60
2018-03-23T18:34:03.533Z,17.70
2018-03-23T18:36:31.003Z,12.23
2018-03-23T18:39:00.006Z,12.47
2018-03-23T18:41:27.499Z,10.57
2018-03-23T18:43:54.961Z,11.63
2018-03-23T18:46:22.426Z,10.77
2018-03-23T18:48:49.910Z,10.93
2018-03-23T18:51:17.450Z,11.87
2018-03-23T18:53:44.931Z,12.37
2018-03-23T18:56:12.408Z,9.83
2018-03-23T18:58:40.679Z,8.80
2018-03-23T19:01:08.154Z,10.80
2018-03-23T19:03:36.414Z,9.20
2018-03-23T19:06:03.879Z,11.17
2018-03-23T19:08:32.172Z,14.30
2018-03-23T19:11:00.477Z,12.40
2018-03-23T19:13:28.085Z,12.33
2018-03-23T19:15:55.549Z,14.60
2018-03-23T19:18:23.819Z,9.87
2018-03-23T19:20:52.046Z,11.73
2018-03-23T19:23:19.532Z,9.60
2018-03-23T19:25:47.084Z,13.80
2018-03-23T19:28:14.572Z,14.33
2018-03-23T19:30:43.513Z,14.90
2018-03-23T19:33:11.036Z,10.23
2018-03-23T19:35:38.537Z,14.17
2018-03-23T19:38:06.013Z,14.30
2018-03-23T19:40:33.494Z,10.63
2018-03-23T19:43:01.734Z,11.50
2018-03-23T19:45:29.222Z,13.37
2018-03-23T19:47:57.522Z,10.70
2018-03-23T19:50:25.226Z,10.43
2018-03-23T19:52:52.687Z,13.80
2018-03-23T19:55:20.169Z,12.10
2018-03-23T19:57:47.797Z,12.70
2018-03-23T20:00:15.261Z,13.90
2018-03-23T20:02:42.867Z,14.23
2018-03-23T20:05:10.493Z,14.27
2018-03-23T20:07:38.051Z,12.40
2018-03-23T20:10:05.553Z,12.13
2018-03-23T20:12:33.636Z,16.10
2018-03-23T20:15:01.108Z,15.47
2018-03-23T20:17:34.312Z,9.83
2018-03-23T20:20:01.807Z,11.13
2018-03-23T20:22:29.274Z,10.43
2018-03-23T20:24:57.556Z,15.07
2018-03-23T20:27:31.474Z,13.37
2018-03-23T20:29:59.160Z,10.63
2018-03-23T20:32:31.677Z,15.80
2018-03-23T20:34:59.160Z,11.10
2018-03-23T20:37:26.653Z,13.00
2018-03-23T20:39:54.130Z,10.93
2018-03-23T20:42:21.613Z,11.73
2018-03-23T20:44:49.897Z,11.30
2018-03-23T20:47:17.675Z,16.50
2018-03-23T20:49:45.948Z,10.03
2018-03-23T20:52:13.554Z,15.50
2018-03-23T20:54:41.067Z,10.70
2018-03-23T20:57:09.436Z,14.10
2018-03-23T20:59:37.193Z,9.70
2018-03-23T21:02:05.524Z,11.40
2018-03-23T21:04:33.195Z,11.60
2018-03-23T21:07:00.907Z,10.53
2018-03-23T21:09:28.607Z,9.87
2018-03-23T21:11:56.089Z,11.70
2018-03-23T21:14:23.670Z,14.83
2018-03-23T21:16:51.219Z,9.43
2018-03-23T21:19:18.741Z,14.13
2018-03-23T21:21:46.695Z,10.23
2018-03-23T21:24:14.220Z,12.03
2018-03-23T21:26:42.585Z,12.53
2018-03-23T21:29:10.291Z,14.60
2018-03-23T21:31:37.894Z,11.53
2018-03-23T21:34:05.472Z,10.23
2018-03-23T21:36:32.960Z,12.30
2018-03-23T21:39:00.608Z,13.27
2018-03-23T21:41:29.097Z,12.60
2018-03-23T21:46:31.448Z,14.30
2018-03-23T21:48:58.933Z,11.60
2018-03-23T21:51:27.274Z,11.40
2018-03-23T21:53:55.006Z,16.23
2018-03-23T21:56:22.491Z,12.00
2018-03-23T21:58:49.998Z,13.60
2018-03-23T22:01:18.228Z,14.20
2018-03-23T22:03:45.861Z,13.23
2018-03-23T22:06:13.340Z,11.80
2018-03-23T22:08:41.474Z,14.70
2018-03-23T22:11:09.152Z,14.17
2018-03-23T22:13:36.644Z,13.37
2018-03-23T22:16:04.137Z,15.27
2018-03-23T22:18:31.763Z,14.13
2018-03-23T22:20:59.281Z,16.10
2018-03-23T22:23:27.244Z,14.17
2018-03-23T22:25:54.749Z,14.80
2018-03-23T22:28:22.242Z,15.20
2018-03-23T22:30:49.741Z,18.70
2018-03-23T22:33:17.352Z,14.30
2018-03-23T22:35:45.839Z,20.47
2018-03-23T22:38:14.078Z,13.33
2018-03-23T22:40:41.603Z,15.23
2018-03-23T22:43:09.256Z,14.80
2018-03-23T22:45:36.914Z,14.80
2018-03-23T22:48:04.426Z,15.37
2018-03-23T22:50:31.898Z,14.33
2018-03-23T22:53:00.178Z,15.53
2018-03-23T22:55:29.367Z,15.80
2018-03-23T22:57:57.141Z,18.07
2018-03-23T23:00:24.625Z,14.20
2018-03-23T23:02:52.241Z,17.80
2018-03-23T23:05:19.782Z,20.60
2018-03-23T23:07:47.414Z,15.87
2018-03-23T23:10:14.881Z,16.33
2018-03-23T23:12:42.441Z,18.87
2018-03-23T23:15:09.915Z,21.70
2018-03-23T23:17:37.586Z,29.97
2018-03-23T23:20:05.077Z,17.70
2018-03-23T23:22:33.322Z,16.40
2018-03-23T23:25:00.794Z,15.40
2018-03-23T23:27:29.041Z,14.57
2018-03-23T23:29:56.538Z,15.77
2018-03-23T23:32:24.811Z,13.67
2018-03-23T23:34:53.071Z,16.10
2018-03-23T23:37:20.538Z,15.03
2018-03-23T23:39:48.786Z,15.17
2018-03-23T23:42:16.948Z,14.63
2018-03-23T23:44:44.418Z,14.63
2018-03-23T23:47:11.893Z,14.23
2018-03-23T23:49:39.364Z,18.60
2018-03-23T23:52:07.602Z,16.20
2018-03-23T23:54:35.075Z,13.83
2018-03-23T23:57:02.556Z,16.43
2018-03-23T23:59:31.047Z,16.53
